Terminal Aerodrome Forecast
Issued by NWS

Home | Current Version | Previous Version | Text Only | Print | Product List | Glossary On
Versions: 1 2 3 4 5 6 7 8 9 10 11 12 13 14 15 16 17
000
FTAK31 PAJN 251459 AAA
TAFAPG
TAF AMD
PAPG 251459Z 2515/2612 06004KT P6SM OVC040
     FM260300 VRB02KT 5SM -RA SCT012 OVC040
     FM260800 00000KT 4SM -RA BR BKN007 BKN012 OVC030=

USA.gov is the U.S. government's official web portal to all federal, state and local government web resources and services.